createdAt,value
2022-10-27T00:00:17.167Z,99172.91
2022-10-27T00:05:41.421Z,99175.12
2022-10-27T00:10:45.750Z,99175.44
2022-10-27T00:15:57.088Z,99174.56
2022-10-27T00:21:01.827Z,99173.30
2022-10-27T00:26:06.256Z,99179.66
2022-10-27T00:31:13.167Z,99175.49
2022-10-27T00:36:18.070Z,99174.63
2022-10-27T00:41:26.649Z,99176.42
2022-10-27T00:46:34.932Z,99177.28
2022-10-27T00:51:41.046Z,99178.30
2022-10-27T00:56:46.186Z,99178.85
2022-10-27T01:01:51.829Z,99174.07
2022-10-27T01:06:55.946Z,99178.30
2022-10-27T01:12:00.002Z,99179.88
2022-10-27T01:17:08.589Z,99181.14
2022-10-27T01:22:15.105Z,99189.38
2022-10-27T01:27:31.917Z,99197.23
2022-10-27T01:32:39.426Z,99198.73
2022-10-27T01:37:46.301Z,99196.52
2022-10-27T01:42:51.552Z,99199.41
2022-10-27T01:47:56.999Z,99202.02
2022-10-27T01:53:01.310Z,99204.52
2022-10-27T01:58:19.427Z,99202.86
2022-10-27T02:03:27.147Z,99203.90
2022-10-27T02:08:35.301Z,99202.08
2022-10-27T02:13:41.062Z,99207.41
2022-10-27T02:18:48.443Z,99211.89
2022-10-27T02:23:53.066Z,99221.46
2022-10-27T02:29:00.177Z,99221.70
2022-10-27T02:34:05.078Z,99222.95
2022-10-27T02:39:09.356Z,99217.39
2022-10-27T02:44:13.692Z,99219.95
2022-10-27T02:49:17.841Z,99224.20
2022-10-27T02:54:21.756Z,99222.14
2022-10-27T02:59:25.960Z,99221.36
2022-10-27T03:04:30.074Z,99226.32
2022-10-27T03:09:34.338Z,99226.70
2022-10-27T03:14:38.777Z,99231.64
2022-10-27T03:19:43.110Z,99233.92
2022-10-27T03:24:46.949Z,99238.48
2022-10-27T03:29:51.067Z,99246.57
2022-10-27T03:34:55.088Z,99247.75
2022-10-27T03:39:59.148Z,99251.76
2022-10-27T03:45:03.243Z,99256.05
2022-10-27T03:50:08.121Z,99256.45
2022-10-27T03:55:11.880Z,99258.50
2022-10-27T04:00:17.409Z,99257.63
2022-10-27T04:05:21.449Z,99261.73
2022-10-27T04:10:25.516Z,99259.36
2022-10-27T04:15:30.166Z,99262.65
2022-10-27T04:20:34.550Z,99267.75
2022-10-27T04:25:38.840Z,99273.81
2022-10-27T04:30:43.267Z,99274.84
2022-10-27T04:35:47.607Z,99274.91
2022-10-27T04:40:51.837Z,99267.68
2022-10-27T04:45:55.857Z,99271.13
2022-10-27T04:50:59.887Z,99278.35
2022-10-27T04:56:04.069Z,99279.98
2022-10-27T05:01:08.817Z,99284.71
2022-10-27T05:06:13.196Z,99287.76
2022-10-27T05:11:17.738Z,99290.67
2022-10-27T05:16:21.977Z,99300.56
2022-10-27T05:21:26.107Z,99309.50
2022-10-27T05:26:31.899Z,99313.59
2022-10-27T05:31:38.869Z,99317.98
2022-10-27T05:36:43.962Z,99324.02
2022-10-27T05:41:48.246Z,99324.27
2022-10-27T05:46:52.327Z,99330.47
2022-10-27T05:51:56.331Z,99333.14
2022-10-27T05:57:00.227Z,99335.10
2022-10-27T06:02:04.629Z,99343.90
2022-10-27T06:07:09.001Z,99345.23
2022-10-27T06:12:12.927Z,99343.66
2022-10-27T06:17:16.838Z,99357.65
2022-10-27T06:22:21.207Z,99356.77
2022-10-27T06:27:25.375Z,99363.84
2022-10-27T06:32:29.740Z,99375.79
2022-10-27T06:37:33.701Z,99390.38
2022-10-27T06:42:49.035Z,99396.81
2022-10-27T06:48:01.677Z,99403.27
2022-10-27T06:53:06.009Z,99411.98
2022-10-27T06:58:10.566Z,99415.52
2022-10-27T07:03:14.751Z,99417.80
2022-10-27T07:08:19.016Z,99415.45
2022-10-27T07:13:23.391Z,99421.02
2022-10-27T07:18:27.687Z,99426.46
2022-10-27T07:23:32.147Z,99430.25
2022-10-27T07:28:35.907Z,99432.20
2022-10-27T07:33:40.320Z,99438.89
2022-10-27T07:38:44.644Z,99448.40
2022-10-27T07:43:48.797Z,99456.09
2022-10-27T07:48:52.973Z,99459.26
2022-10-27T07:53:58.147Z,99457.21
2022-10-27T07:59:02.717Z,99464.23
2022-10-27T08:04:07.102Z,99466.61
2022-10-27T08:09:15.232Z,99471.26
2022-10-27T08:14:21.967Z,99466.48
2022-10-27T08:19:26.266Z,99477.00
2022-10-27T08:24:30.277Z,99481.89
2022-10-27T08:29:34.540Z,99488.73
2022-10-27T08:34:38.618Z,99501.31
2022-10-27T08:39:42.547Z,99505.34
2022-10-27T08:44:51.087Z,99507.88
2022-10-27T08:49:56.848Z,99507.08
2022-10-27T08:55:02.061Z,99508.13
2022-10-27T09:00:07.517Z,99514.19
2022-10-27T09:05:22.252Z,99508.34
2022-10-27T09:10:38.712Z,99510.61
2022-10-27T09:15:44.949Z,99510.05
2022-10-27T09:20:55.044Z,99509.59
2022-10-27T09:25:59.937Z,99512.49
2022-10-27T09:31:05.059Z,99510.59
2022-10-27T09:36:14.686Z,99511.89
2022-10-27T09:41:18.909Z,99519.24
2022-10-27T09:46:24.777Z,99511.33
2022-10-27T09:51:34.331Z,99509.46
2022-10-27T09:56:38.768Z,99507.96
2022-10-27T10:01:51.996Z,99510.17
2022-10-27T10:06:56.978Z,99517.00
2022-10-27T10:12:22.943Z,99510.99
2022-10-27T10:17:29.507Z,99508.66
2022-10-27T10:22:36.369Z,99504.39
2022-10-27T10:27:47.818Z,99498.95
2022-10-27T10:32:53.847Z,99505.55
2022-10-27T10:38:02.679Z,99501.14
2022-10-27T10:43:18.168Z,99494.67
2022-10-27T10:48:29.696Z,99489.36
2022-10-27T10:53:36.137Z,99488.23
2022-10-27T10:58:42.847Z,99483.34
2022-10-27T11:03:48.666Z,99482.40
2022-10-27T11:08:57.907Z,99478.33
2022-10-27T11:14:03.705Z,99471.55
2022-10-27T11:19:11.111Z,99478.68
2022-10-27T11:24:17.657Z,99480.42
2022-10-27T11:29:26.486Z,99475.78
2022-10-27T11:34:35.597Z,99472.08
2022-10-27T11:39:45.652Z,99468.29
2022-10-27T11:44:54.396Z,99466.15
2022-10-27T11:50:01.883Z,99468.20
2022-10-27T11:55:09.152Z,99471.16
2022-10-27T12:00:16.882Z,99469.96
2022-10-27T12:05:22.857Z,99472.95
2022-10-27T12:10:34.641Z,99465.56
2022-10-27T12:15:43.307Z,99464.94
2022-10-27T12:20:51.740Z,99466.42
2022-10-27T12:26:01.059Z,99465.55
2022-10-27T12:31:08.558Z,99464.50
2022-10-27T12:36:18.630Z,99463.09
2022-10-27T12:41:28.673Z,99460.18
2022-10-27T12:46:41.950Z,99455.46
2022-10-27T12:51:51.187Z,99451.76
2022-10-27T12:57:01.977Z,99457.66
2022-10-27T13:02:10.522Z,99457.89
2022-10-27T13:07:28.675Z,99459.23
2022-10-27T13:12:44.477Z,99452.05
2022-10-27T13:17:55.235Z,99452.29
2022-10-27T13:23:02.069Z,99455.08
2022-10-27T13:28:08.768Z,99455.30
2022-10-27T13:33:27.311Z,99456.80
2022-10-27T13:38:31.950Z,99456.16
2022-10-27T13:43:44.271Z,99457.89
2022-10-27T13:48:49.386Z,99459.77
2022-10-27T13:53:53.927Z,99459.94
2022-10-27T13:59:02.077Z,99463.59
2022-10-27T14:04:20.960Z,99462.42
2022-10-27T14:09:30.606Z,99464.13
2022-10-27T14:14:35.596Z,99458.48
2022-10-27T14:19:40.118Z,99465.55
2022-10-27T14:24:50.217Z,99461.95
2022-10-27T14:30:04.787Z,99460.75
2022-10-27T14:35:21.606Z,99459.98
2022-10-27T14:40:31.544Z,99460.60
2022-10-27T14:45:36.230Z,99463.58
2022-10-27T14:50:42.046Z,99463.96
2022-10-27T14:55:46.110Z,99463.18
2022-10-27T15:00:51.567Z,99466.63
2022-10-27T15:05:55.873Z,99461.60
2022-10-27T15:11:00.666Z,99460.41
2022-10-27T15:16:11.190Z,99460.33
2022-10-27T15:21:16.426Z,99459.86
2022-10-27T15:26:24.474Z,99459.52
2022-10-27T15:31:29.311Z,99457.02
2022-10-27T15:36:33.944Z,99457.58
2022-10-27T15:41:47.494Z,99452.38
2022-10-27T15:46:51.736Z,99448.53
2022-10-27T15:51:56.585Z,99452.07
2022-10-27T15:57:01.756Z,99455.36
2022-10-27T16:02:19.940Z,99455.69
2022-10-27T16:07:30.620Z,99461.58
2022-10-27T16:12:41.816Z,99465.96
2022-10-27T16:17:48.560Z,99471.85
2022-10-27T16:22:53.319Z,99470.11
2022-10-27T16:27:58.309Z,99473.33
2022-10-27T16:33:04.050Z,99473.65
2022-10-27T16:38:09.407Z,99475.84
2022-10-27T16:43:19.886Z,99474.81
2022-10-27T16:48:24.659Z,99471.67
2022-10-27T16:53:29.137Z,99472.76
2022-10-27T16:58:35.572Z,99475.42
2022-10-27T17:03:39.890Z,99472.52
2022-10-27T17:08:44.291Z,99481.23
2022-10-27T17:13:48.936Z,99487.44
2022-10-27T17:18:53.620Z,99487.43
2022-10-27T17:23:57.811Z,99490.02
2022-10-27T17:29:02.037Z,99487.74
2022-10-27T17:34:06.962Z,99491.91
2022-10-27T17:39:11.422Z,99497.33
2022-10-27T17:44:15.958Z,99501.80
2022-10-27T17:49:20.131Z,99506.52
2022-10-27T17:54:24.547Z,99506.13
2022-10-27T17:59:29.067Z,99507.38
2022-10-27T18:04:35.430Z,99512.88
2022-10-27T18:09:39.778Z,99502.27
2022-10-27T18:14:44.425Z,99505.49
2022-10-27T18:19:48.687Z,99511.15
2022-10-27T18:24:52.920Z,99508.16
2022-10-27T18:29:56.947Z,99513.34
2022-10-27T18:35:01.290Z,99512.56
2022-10-27T18:40:06.021Z,99512.09
2022-10-27T18:45:10.686Z,99507.30
2022-10-27T18:50:15.707Z,99505.80
2022-10-27T19:00:28.910Z,99506.67
2022-10-27T19:05:33.907Z,99508.80
2022-10-27T19:10:38.382Z,99514.05
2022-10-27T19:15:42.594Z,99513.73
2022-10-27T19:20:46.751Z,99515.52
2022-10-27T19:25:51.278Z,99512.23
2022-10-27T19:30:55.497Z,99511.66
2022-10-27T19:36:04.107Z,99507.98
2022-10-27T19:41:11.657Z,99506.25
2022-10-27T19:46:15.536Z,99513.01
2022-10-27T19:51:19.907Z,99513.39
2022-10-27T19:56:24.580Z,99512.21
2022-10-27T20:01:29.558Z,99509.92
2022-10-27T20:06:33.947Z,99508.99
2022-10-27T20:11:38.017Z,99511.89
2022-10-27T20:16:42.889Z,99515.98
2022-10-27T20:21:47.421Z,99513.77
2022-10-27T20:32:01.330Z,99520.53
2022-10-27T20:37:05.462Z,99518.80
2022-10-27T20:42:09.706Z,99517.23
2022-10-27T20:47:13.686Z,99515.59
2022-10-27T20:52:17.846Z,99516.36
2022-10-27T20:57:22.360Z,99513.52
2022-10-27T21:02:26.410Z,99510.00
2022-10-27T21:07:30.829Z,99512.05
2022-10-27T21:12:35.984Z,99506.92
2022-10-27T21:17:40.266Z,99503.61
2022-10-27T21:22:44.567Z,99495.23
2022-10-27T21:27:52.681Z,99496.23
2022-10-27T21:32:57.097Z,99496.40
2022-10-27T21:38:01.790Z,99489.34
2022-10-27T21:43:05.890Z,99488.80
2022-10-27T21:48:10.247Z,99495.16
2022-10-27T21:53:14.430Z,99493.40
2022-10-27T21:58:18.557Z,99486.82
2022-10-27T22:03:22.623Z,99488.05
2022-10-27T22:08:26.838Z,99486.32
2022-10-27T22:13:30.947Z,99490.26
2022-10-27T22:18:35.276Z,99492.30
2022-10-27T22:23:39.770Z,99493.01
2022-10-27T22:28:44.170Z,99496.23
2022-10-27T22:33:48.706Z,99495.05
2022-10-27T22:38:54.180Z,99505.34
2022-10-27T22:43:58.529Z,99506.98
2022-10-27T22:49:03.027Z,99509.65
2022-10-27T22:54:07.266Z,99510.54
2022-10-27T22:59:11.827Z,99508.23
2022-10-27T23:04:17.057Z,99513.52
2022-10-27T23:09:21.927Z,99511.77
2022-10-27T23:14:26.190Z,99509.18
2022-10-27T23:19:29.897Z,99513.33
2022-10-27T23:24:33.967Z,99512.71
2022-10-27T23:29:38.206Z,99506.27
2022-10-27T23:34:42.466Z,99500.63
2022-10-27T23:39:46.595Z,99498.33
2022-10-27T23:44:50.699Z,99493.46
2022-10-27T23:49:54.956Z,99489.93
2022-10-27T23:54:59.167Z,99494.89
